Time;durP1;ratioP1;P1;durP2;ratioP2;P2;SDS_P1;SDS_P2;PMS_P1;PMS_P2;Temp;Humidity;BMP_temperature;BMP_pressure;BME280_temperature;BME280_humidity;BME280_pressure;Samples;Min_cycle;Max_cycle;Signal;HPM_P1;HPM_P2
2021/08/26 00:00:24;;;;;;;25.35;20.75;;;;;;;22.58;81.74;99565.81;5092389;28;20031;-68
2021/08/26 00:05:47;;;;;;;27.00;20.92;;;;;;;22.53;81.46;99562.22;5094648;28;20039;-68
2021/08/26 00:08:15;;;;;;;30.17;22.55;;;;;;;22.49;81.77;99564.59;5092549;28;20270;-68
2021/08/26 00:10:41;;;;;;;26.05;20.45;;;;;;;22.76;80.49;99564.75;5077382;28;20032;-68
2021/08/26 00:13:07;;;;;;;30.27;20.85;;;;;;;22.91;78.94;99561.53;5096108;28;20074;-68
2021/08/26 00:15:34;;;;;;;28.42;20.88;;;;;;;23.01;78.72;99542.78;5094995;28;20031;-68
2021/08/26 00:17:59;;;;;;;30.58;21.48;;;;;;;23.08;78.27;99548.00;5097850;28;20099;-68
2021/08/26 00:20:26;;;;;;;24.77;19.67;;;;;;;23.08;77.55;99548.81;5097908;28;20062;-68
2021/08/26 00:22:51;;;;;;;27.05;21.20;;;;;;;23.14;76.38;99541.63;5098781;28;20035;-68
2021/08/26 00:25:17;;;;;;;29.83;21.02;;;;;;;22.72;78.32;99536.63;5099920;28;20118;-68
2021/08/26 00:27:43;;;;;;;34.63;23.50;;;;;;;22.08;80.12;99529.88;5096418;28;20048;-68
2021/08/26 00:30:09;;;;;;;32.50;23.50;;;;;;;21.81;81.96;99537.66;5098940;28;20024;-68
2021/08/26 00:32:34;;;;;;;35.15;24.60;;;;;;;21.81;82.58;99526.88;5098457;28;20032;-68
2021/08/26 00:35:00;;;;;;;33.03;23.42;;;;;;;21.94;82.37;99530.13;5096444;28;20066;-68
2021/08/26 00:37:25;;;;;;;35.58;24.77;;;;;;;21.98;83.60;99541.25;5099300;28;20032;-68
2021/08/26 00:39:51;;;;;;;33.72;24.00;;;;;;;22.08;82.85;99536.06;5079161;28;20040;-68
2021/08/26 00:42:16;;;;;;;29.63;23.17;;;;;;;22.12;83.04;99525.63;5098020;28;20080;-68
2021/08/26 00:44:41;;;;;;;31.35;23.05;;;;;;;22.21;82.90;99530.38;5097599;28;20325;-68
2021/08/26 00:47:09;;;;;;;31.70;22.92;;;;;;;22.41;81.54;99529.09;5097181;28;20043;-68
2021/08/26 00:49:34;;;;;;;29.27;22.38;;;;;;;22.58;81.20;99530.72;5099713;28;20095;-68
2021/08/26 00:52:00;;;;;;;31.80;22.42;;;;;;;22.63;80.09;99524.59;5096930;28;20032;-68
2021/08/26 00:54:27;;;;;;;33.10;22.55;;;;;;;22.73;79.60;99522.06;5095535;28;20081;-68
2021/08/26 00:56:55;;;;;;;33.45;22.42;;;;;;;22.74;79.20;99512.06;5099018;28;20020;-68
2021/08/26 00:59:20;;;;;;;28.23;21.17;;;;;;;22.82;78.69;99522.50;5077382;28;20105;-68
2021/08/26 01:02:02;;;;;;;25.85;19.83;;;;;;;22.83;77.96;99505.22;5096395;28;20051;-68
2021/08/26 01:04:39;;;;;;;28.20;20.05;;;;;;;22.90;77.47;99516.69;5093811;28;20052;-68
2021/08/26 01:07:22;;;;;;;25.80;20.58;;;;;;;22.92;77.37;99517.28;5095615;28;20042;-68
2021/08/26 01:09:54;;;;;;;29.88;21.73;;;;;;;22.95;77.59;99526.75;5094164;28;20108;-68
2021/08/26 01:12:24;;;;;;;29.67;21.98;;;;;;;22.83;78.76;99516.84;5097994;28;20028;-68
2021/08/26 01:14:53;;;;;;;29.48;21.65;;;;;;;22.84;78.86;99513.06;5096290;28;20035;-68
2021/08/26 01:17:27;;;;;;;31.70;21.95;;;;;;;22.84;78.54;99506.88;5096213;28;20028;-68
2021/08/26 01:19:54;;;;;;;30.15;21.63;;;;;;;22.79;79.16;99507.56;5093114;28;20036;-68
2021/08/26 01:22:22;;;;;;;30.58;23.38;;;;;;;22.71;79.58;99509.88;5096965;28;20036;-68
2021/08/26 01:24:57;;;;;;;28.08;22.55;;;;;;;22.75;79.71;99508.31;5097608;28;20031;-68
2021/08/26 01:27:27;;;;;;;30.27;23.20;;;;;;;22.69;80.30;99512.00;5091261;28;20039;-68
2021/08/26 01:29:53;;;;;;;29.60;22.42;;;;;;;22.77;80.06;99517.81;5098055;28;20044;-68
2021/08/26 01:32:21;;;;;;;30.17;22.20;;;;;;;22.87;79.20;99509.06;5093787;28;20037;-68
2021/08/26 01:34:48;;;;;;;29.17;22.98;;;;;;;22.98;78.41;99515.47;5096953;28;20028;-68
2021/08/26 01:37:19;;;;;;;29.60;23.35;;;;;;;22.91;78.27;99516.44;5079184;28;20073;-68
2021/08/26 01:39:54;;;;;;;32.85;25.05;;;;;;;22.87;78.25;99507.19;5096440;28;20036;-68
2021/08/26 01:42:22;;;;;;;33.80;24.45;;;;;;;22.86;77.79;99507.44;5095094;28;20115;-68
2021/08/26 01:44:47;;;;;;;30.83;23.70;;;;;;;22.80;78.45;99509.25;5081424;28;20287;-68
2021/08/26 01:47:15;;;;;;;29.80;24.80;;;;;;;22.53;79.55;99503.66;5097013;28;20250;-68
2021/08/26 01:49:45;;;;;;;34.35;25.02;;;;;;;22.57;78.85;99507.50;5096449;28;20072;-68
2021/08/26 01:52:15;;;;;;;32.60;24.77;;;;;;;22.44;79.17;99513.25;5094900;28;20115;-68
2021/08/26 01:54:53;;;;;;;35.15;25.55;;;;;;;22.45;79.07;99493.28;5096799;28;20073;-68
2021/08/26 01:57:23;;;;;;;32.05;24.63;;;;;;;22.34;79.58;99496.06;5092717;28;20032;-68
2021/08/26 01:59:49;;;;;;;36.35;25.13;;;;;;;22.42;79.38;99507.25;5097827;28;20062;-68
2021/08/26 02:02:15;;;;;;;36.25;25.17;;;;;;;22.32;79.69;99504.41;5094267;28;20037;-68
2021/08/26 02:04:41;;;;;;;28.92;23.67;;;;;;;22.27;80.19;99496.22;5097674;28;20040;-68
2021/08/26 02:07:07;;;;;;;32.78;24.85;;;;;;;22.41;78.08;99496.72;5097567;28;20054;-68
2021/08/26 02:09:32;;;;;;;31.88;25.60;;;;;;;22.26;79.63;99505.38;5095133;28;20039;-68
2021/08/26 02:11:58;;;;;;;31.88;24.45;;;;;;;22.16;80.23;99506.03;5095526;28;20051;-68
2021/08/26 02:14:23;;;;;;;31.33;24.05;;;;;;;22.16;80.00;99491.72;5094529;28;20036;-68
2021/08/26 02:16:49;;;;;;;33.00;24.60;;;;;;;22.08;80.47;99502.91;5095362;28;20044;-68
2021/08/26 02:19:14;;;;;;;40.50;26.95;;;;;;;22.10;80.76;99490.81;5097872;28;20069;-68
2021/08/26 02:21:40;;;;;;;36.97;26.48;;;;;;;21.90;82.21;99477.75;5097047;28;20328;-68
2021/08/26 02:24:06;;;;;;;35.97;26.48;;;;;;;22.04;81.15;99481.00;5094036;28;20059;-68
2021/08/26 02:26:32;;;;;;;36.53;25.83;;;;;;;22.12;80.78;99467.13;5095761;28;20051;-68
2021/08/26 02:28:58;;;;;;;38.72;27.10;;;;;;;21.95;82.28;99471.66;5093143;28;20054;-68
2021/08/26 02:31:24;;;;;;;34.75;25.13;;;;;;;22.18;80.42;99470.72;5097317;28;20396;-68
2021/08/26 02:33:50;;;;;;;34.53;24.88;;;;;;;22.21;80.28;99462.97;5097307;28;20109;-68
2021/08/26 02:36:15;;;;;;;36.53;25.55;;;;;;;22.35;79.51;99466.16;5095684;28;20031;-68
2021/08/26 02:38:41;;;;;;;33.05;25.02;;;;;;;22.44;78.06;99459.28;5096769;28;20260;-68
2021/08/26 02:41:06;;;;;;;33.30;25.42;;;;;;;22.39;78.73;99463.78;5095338;28;20036;-68
2021/08/26 02:43:32;;;;;;;35.25;25.52;;;;;;;22.27;79.63;99461.97;5095767;28;20217;-68
2021/08/26 02:45:57;;;;;;;33.22;25.55;;;;;;;22.31;78.91;99467.69;5096369;28;20048;-68
2021/08/26 02:48:23;;;;;;;32.03;24.50;;;;;;;22.25;78.65;99485.69;5094468;28;20034;-68
2021/08/26 02:50:48;;;;;;;37.10;25.75;;;;;;;22.22;79.32;99477.25;5095941;28;20038;-69
2021/08/26 02:53:14;;;;;;;39.15;26.55;;;;;;;22.04;80.35;99474.78;5097002;28;20044;-68
2021/08/26 02:55:39;;;;;;;40.75;26.20;;;;;;;21.96;80.76;99489.44;5094486;28;20317;-68
2021/08/26 02:58:05;;;;;;;33.15;26.38;;;;;;;21.94;80.96;99481.59;5096760;28;20310;-68
2021/08/26 03:00:30;;;;;;;38.55;28.00;;;;;;;21.79;81.43;99480.47;5093912;28;20065;-68
2021/08/26 03:02:55;;;;;;;36.58;26.48;;;;;;;21.74;82.20;99491.16;5095426;28;20028;-68
2021/08/26 03:05:21;;;;;;;38.38;27.27;;;;;;;21.81;81.92;99487.25;5094081;28;20214;-68
2021/08/26 03:07:46;;;;;;;36.80;27.98;;;;;;;21.63;83.11;99487.47;5095374;28;20031;-68
2021/08/26 03:10:12;;;;;;;34.92;27.02;;;;;;;21.69;82.82;99489.19;5095456;28;20223;-68
2021/08/26 03:12:37;;;;;;;39.45;27.67;;;;;;;21.91;81.19;99492.88;5094773;28;20340;-68
2021/08/26 03:15:03;;;;;;;36.03;25.55;;;;;;;21.74;82.35;99491.16;5096057;28;20038;-68
2021/08/26 03:17:28;;;;;;;33.92;25.45;;;;;;;21.80;81.76;99484.81;5092875;28;20044;-68
2021/08/26 03:19:54;;;;;;;35.75;27.45;;;;;;;21.75;81.65;99488.22;5094649;28;20028;-68
2021/08/26 03:22:19;;;;;;;37.45;27.90;;;;;;;21.61;82.59;99485.00;5095966;28;20334;-68
2021/08/26 03:24:45;;;;;;;37.13;28.52;;;;;;;21.63;82.26;99492.84;5095158;28;20281;-68
2021/08/26 03:27:10;;;;;;;38.50;27.65;;;;;;;21.63;82.52;99492.84;5093799;28;20097;-68
2021/08/26 03:29:36;;;;;;;41.78;29.13;;;;;;;21.47;83.34;99489.03;5094271;28;20330;-68
2021/08/26 03:32:01;;;;;;;36.20;28.13;;;;;;;21.59;82.21;99492.50;5095103;28;20077;-68
2021/08/26 03:34:27;;;;;;;39.75;29.77;;;;;;;21.57;82.30;99497.31;5095525;28;20032;-68
2021/08/26 03:36:52;;;;;;;39.40;29.48;;;;;;;21.59;82.01;99484.44;5094645;28;20336;-68
2021/08/26 03:39:17;;;;;;;45.15;30.77;;;;;;;21.32;83.28;99481.47;5095754;28;20042;-68
2021/08/26 03:41:43;;;;;;;38.78;29.67;;;;;;;21.43;82.51;99482.50;5094931;28;20036;-68
2021/08/26 03:44:08;;;;;;;42.63;30.15;;;;;;;21.42;83.02;99486.25;5093913;28;20036;-68
2021/08/26 03:46:34;;;;;;;46.97;30.40;;;;;;;21.37;83.39;99480.75;5094794;28;20024;-69
2021/08/26 03:48:59;;;;;;;40.88;28.65;;;;;;;21.29;83.80;99492.72;5093274;28;20039;-68
2021/08/26 03:51:25;;;;;;;38.47;30.00;;;;;;;21.24;84.63;99498.00;5098129;28;20070;-68
2021/08/26 03:53:50;;;;;;;41.60;27.00;;;;;;;21.48;83.10;99493.38;5098804;28;20227;-68
2021/08/26 03:56:15;;;;;;;41.40;27.75;;;;;;;21.50;82.74;99490.44;5094616;28;20218;-68
2021/08/26 03:58:41;;;;;;;42.33;28.10;;;;;;;21.51;82.02;99494.78;5100203;28;20246;-68
2021/08/26 04:01:07;;;;;;;41.10;26.73;;;;;;;21.48;82.75;99506.84;5097939;28;20032;-68
2021/08/26 04:03:33;;;;;;;38.30;26.10;;;;;;;21.43;83.45;99508.59;5098137;28;20023;-68
2021/08/26 04:05:58;;;;;;;37.28;25.73;;;;;;;21.39;83.22;99516.34;5080681;28;20043;-68
2021/08/26 04:08:24;;;;;;;38.28;26.50;;;;;;;21.40;83.51;99506.41;5098068;28;20256;-68
2021/08/26 04:10:50;;;;;;;35.00;26.10;;;;;;;21.50;82.04;99503.91;5097830;28;20290;-68
2021/08/26 04:13:15;;;;;;;33.80;24.95;;;;;;;21.44;82.99;99500.28;5098155;28;20091;-68
2021/08/26 04:15:41;;;;;;;36.08;25.13;;;;;;;21.47;83.10;99513.28;5097512;28;20296;-68
2021/08/26 04:18:06;;;;;;;31.67;25.25;;;;;;;21.43;83.57;99508.59;5098848;28;20035;-68
2021/08/26 04:20:31;;;;;;;33.38;24.38;;;;;;;21.41;83.53;99516.13;5098820;28;20097;-68
2021/08/26 04:22:57;;;;;;;30.45;24.10;;;;;;;21.56;82.57;99511.84;5098175;28;20365;-68
2021/08/26 04:25:22;;;;;;;37.90;25.58;;;;;;;21.52;82.35;99520.66;5094616;28;20032;-68
2021/08/26 04:27:48;;;;;;;33.33;25.65;;;;;;;21.75;81.56;99515.19;5079749;28;20333;-69
2021/08/26 04:30:14;;;;;;;34.35;23.83;;;;;;;21.82;80.67;99513.16;5097056;28;20046;-68
2021/08/26 04:32:39;;;;;;;34.63;24.88;;;;;;;21.93;79.88;99512.31;5082684;28;20372;-68
2021/08/26 04:35:05;;;;;;;34.85;25.05;;;;;;;21.89;80.07;99508.47;5098012;28;20036;-68
2021/08/26 04:37:31;;;;;;;39.30;25.33;;;;;;;21.83;81.00;99512.09;5096819;28;20318;-68
2021/08/26 04:39:57;;;;;;;36.05;26.40;;;;;;;21.90;80.56;99502.03;5099604;28;20035;-68
2021/08/26 04:42:22;;;;;;;38.42;26.88;;;;;;;21.96;80.15;99484.88;5097544;28;20043;-68
2021/08/26 04:44:47;;;;;;;35.33;25.75;;;;;;;22.09;79.84;99485.66;5098350;28;20187;-68
2021/08/26 04:47:13;;;;;;;35.03;24.88;;;;;;;22.18;79.29;99478.81;5095248;28;20028;-69
2021/08/26 04:49:38;;;;;;;35.55;24.63;;;;;;;22.14;79.27;99473.09;5097419;28;20283;-68
2021/08/26 04:52:04;;;;;;;35.22;26.08;;;;;;;22.12;79.52;99475.22;5098495;28;20044;-68
2021/08/26 04:54:30;;;;;;;39.08;25.08;;;;;;;22.21;78.76;99475.63;5098828;28;20091;-68
2021/08/26 04:56:55;;;;;;;37.83;24.30;;;;;;;22.28;79.72;99469.00;5096222;28;20074;-68
2021/08/26 04:59:20;;;;;;;36.22;25.67;;;;;;;22.47;79.26;99474.16;5099378;28;20019;-68
2021/08/26 05:01:46;;;;;;;33.28;25.02;;;;;;;22.32;79.59;99466.63;5097372;28;20353;-68
2021/08/26 05:04:11;;;;;;;35.03;24.40;;;;;;;22.46;78.54;99475.22;5096534;28;20302;-68
2021/08/26 05:06:37;;;;;;;33.85;24.45;;;;;;;;;;5096204;28;20019;-68
2021/08/26 05:09:02;;;;;;;32.72;23.80;;;;;;;22.68;78.36;99472.59;5094374;28;20028;-68
2021/08/26 05:11:28;;;;;;;34.08;23.85;;;;;;;22.72;78.18;99479.94;5097267;28;20043;-68
2021/08/26 05:13:53;;;;;;;34.08;23.27;;;;;;;23.15;78.05;99484.66;5096454;28;20119;-68
2021/08/26 05:16:19;;;;;;;29.33;21.73;;;;;;;23.42;75.97;99467.69;5098265;28;20306;-68
2021/08/26 05:18:44;;;;;;;29.70;21.30;;;;;;;23.51;74.84;99476.97;5098130;28;20334;-68
2021/08/26 05:21:10;;;;;;;28.42;19.95;;;;;;;23.63;74.67;99466.06;5095952;28;20020;-68
2021/08/26 05:23:35;;;;;;;26.65;17.88;;;;;;;23.62;73.74;99449.03;5071012;28;20039;-69
2021/08/26 05:26:02;;;;;;;24.70;18.40;;;;;;;23.87;72.98;99467.38;5095935;28;20031;-68
2021/08/26 05:28:27;;;;;;;23.80;17.67;;;;;;;24.07;71.82;99477.63;5095696;28;20032;-68
2021/08/26 05:30:53;;;;;;;23.38;17.52;;;;;;;24.12;71.79;99477.66;5096388;28;20069;-68
2021/08/26 05:33:18;;;;;;;26.00;18.27;;;;;;;24.22;72.14;99469.63;5096441;28;20226;-68
2021/08/26 05:35:43;;;;;;;22.85;17.58;;;;;;;24.46;71.32;99473.66;5095491;28;20039;-68
2021/08/26 05:38:09;;;;;;;24.30;17.30;;;;;;;24.79;69.39;99475.22;5096296;28;20032;-68
2021/08/26 05:40:35;;;;;;;24.73;16.85;;;;;;;25.09;68.16;99462.97;5096142;28;20039;-69
2021/08/26 05:43:00;;;;;;;24.65;17.42;;;;;;;25.05;67.91;99454.56;5096470;28;20032;-68
2021/08/26 05:45:27;;;;;;;22.13;16.75;;;;;;;25.34;67.44;99454.97;5096838;28;20024;-68
2021/08/26 05:47:56;;;;;;;21.30;16.40;;;;;;;25.85;66.41;99443.47;5096351;28;20040;-69
2021/08/26 05:50:22;;;;;;;22.90;15.63;;;;;;;25.98;64.13;99438.31;5096303;28;20340;-69
2021/08/26 05:52:48;;;;;;;20.08;15.10;;;;;;;26.22;62.96;99448.66;5095349;28;20040;-69
2021/08/26 05:55:16;;;;;;;19.20;14.05;;;;;;;26.32;62.74;99462.22;5096612;28;20032;-69
2021/08/26 05:57:41;;;;;;;23.50;15.23;;;;;;;26.65;61.87;99455.44;5098216;28;20097;-68
2021/08/26 06:00:07;;;;;;;22.83;15.30;;;;;;;27.00;60.43;99471.69;5077249;28;20032;-68
2021/08/26 06:02:33;;;;;;;19.52;15.90;;;;;;;26.78;61.20;99464.91;5097059;28;20040;-68
2021/08/26 06:04:58;;;;;;;23.88;15.98;;;;;;;26.25;61.27;99467.94;5095443;28;20043;-69
2021/08/26 06:07:24;;;;;;;20.23;15.15;;;;;;;26.43;61.03;99460.34;5096910;28;20087;-68
2021/08/26 06:09:49;;;;;;;21.60;16.67;;;;;;;26.67;60.84;99472.28;5096808;28;20065;-69
2021/08/26 06:12:14;;;;;;;21.40;14.57;;;;;;;26.68;59.52;99472.00;5094896;28;20028;-69
2021/08/26 06:14:40;;;;;;;26.45;15.63;;;;;;;26.86;58.95;99459.75;5098261;28;20024;-69
2021/08/26 06:17:05;;;;;;;21.45;15.23;;;;;;;27.08;58.44;99453.22;5094531;28;20039;-68
2021/08/26 06:19:31;;;;;;;20.65;16.70;;;;;;;26.95;58.53;99455.38;5094074;28;20218;-68
2021/08/26 06:21:56;;;;;;;19.02;13.68;;;;;;;27.32;57.27;99451.47;5095160;28;20219;-69
2021/08/26 06:24:22;;;;;;;20.30;14.30;;;;;;;27.23;55.81;99443.09;5095912;28;20339;-69
2021/08/26 06:26:47;;;;;;;19.67;14.93;;;;;;;26.99;56.92;99444.78;5077480;28;20020;-69
2021/08/26 06:29:12;;;;;;;21.23;14.60;;;;;;;27.26;56.03;99447.16;5093536;28;20040;-69
2021/08/26 06:31:39;;;;;;;18.52;14.13;;;;;;;27.34;55.31;99450.09;5077806;28;20020;-68
2021/08/26 06:34:04;;;;;;;18.95;14.23;;;;;;;27.34;54.96;99438.41;5096305;28;20357;-69
2021/08/26 06:36:30;;;;;;;21.67;14.73;;;;;;;27.31;54.77;99447.94;5095173;28;20031;-68
2021/08/26 06:38:55;;;;;;;23.00;16.75;;;;;;;27.69;54.77;99451.03;5096310;28;20032;-69
2021/08/26 06:41:21;;;;;;;21.92;16.38;;;;;;;27.95;54.23;99449.78;5092977;28;20032;-69
2021/08/26 06:43:46;;;;;;;22.38;15.88;;;;;;;28.15;54.51;99448.84;5077502;28;20042;-68
2021/08/26 06:46:11;;;;;;;22.10;16.00;;;;;;;28.21;53.49;99447.69;5078667;28;20034;-68
2021/08/26 06:48:37;;;;;;;22.85;15.70;;;;;;;28.40;52.23;99455.19;5095153;28;20027;-69
2021/08/26 06:51:02;;;;;;;20.23;13.73;;;;;;;28.49;52.08;99453.47;5094939;28;20442;-69
2021/08/26 06:53:28;;;;;;;26.40;19.88;;;;;;;28.44;52.47;99451.59;5094145;28;20501;-69
2021/08/26 06:55:53;;;;;;;17.80;14.07;;;;;;;28.01;52.70;99455.19;5094553;28;20221;-68
2021/08/26 06:58:19;;;;;;;18.50;15.35;;;;;;;27.38;55.27;99461.25;5095482;28;20326;-69
2021/08/26 07:00:44;;;;;;;19.08;14.35;;;;;;;28.02;53.78;99467.69;5095199;28;20226;-68
2021/08/26 07:03:09;;;;;;;19.27;15.15;;;;;;;28.57;52.67;99458.28;5093122;28;20031;-69
2021/08/26 07:05:37;;;;;;;20.85;16.33;;;;;;;28.32;52.42;99461.25;5096644;28;20024;-69
2021/08/26 07:08:02;;;;;;;17.98;14.90;;;;;;;28.83;51.95;99464.28;5096059;28;20039;-69
2021/08/26 07:10:28;;;;;;;24.92;17.15;;;;;;;29.21;51.02;99465.28;5095270;28;20034;-69
2021/08/26 07:12:53;;;;;;;21.40;15.50;;;;;;;29.19;51.43;99467.50;5096531;28;20036;-69
2021/08/26 07:15:22;;;;;;;22.23;15.13;;;;;;;29.57;50.32;99468.41;5095354;28;20040;-69
2021/08/26 07:17:48;;;;;;;21.20;16.40;;;;;;;29.85;48.49;99452.97;5092555;28;20069;-69
2021/08/26 07:20:13;;;;;;;16.98;14.05;;;;;;;29.79;49.56;99451.44;5077799;28;20020;-69
2021/08/26 07:22:39;;;;;;;18.52;14.85;;;;;;;29.24;48.74;99465.50;5095082;28;20084;-69
2021/08/26 07:25:04;;;;;;;21.17;14.80;;;;;;;29.35;49.42;99466.19;5097385;28;20038;-69
2021/08/26 07:27:30;;;;;;;19.48;13.55;;;;;;;29.30;49.65;99470.91;5094274;28;20032;-69
2021/08/26 07:29:55;;;;;;;16.98;13.43;;;;;;;28.78;50.40;99472.53;5094039;28;20301;-69
2021/08/26 07:32:21;;;;;;;20.95;12.80;;;;;;;28.35;50.72;99472.38;5096235;28;20108;-69
2021/08/26 07:34:46;;;;;;;23.52;13.18;;;;;;;28.38;51.96;99473.72;5092966;28;20310;-69
2021/08/26 07:37:12;;;;;;;16.35;12.90;;;;;;;28.54;51.99;99484.19;5094373;28;20337;-68
2021/08/26 07:39:37;;;;;;;18.45;14.18;;;;;;;28.07;51.91;99486.72;5092865;28;20032;-69
2021/08/26 07:42:03;;;;;;;18.45;12.90;;;;;;;27.81;52.21;99467.81;5097513;28;20077;-69
2021/08/26 07:44:28;;;;;;;74.38;51.80;;;;;;;27.76;52.28;99459.69;5074351;28;20222;-69
2021/08/26 07:46:53;;;;;;;23.88;17.10;;;;;;;27.77;52.75;99463.22;5094323;28;20222;-68
2021/08/26 07:49:19;;;;;;;17.50;13.65;;;;;;;27.83;54.12;99473.00;5094634;28;20020;-69
2021/08/26 07:51:44;;;;;;;18.42;14.07;;;;;;;27.65;53.72;99467.13;5092459;28;20201;-69
2021/08/26 07:54:10;;;;;;;20.70;14.95;;;;;;;27.88;52.80;99448.47;5078889;28;20628;-69
2021/08/26 07:56:38;;;;;;;23.08;14.40;;;;;;;27.94;52.34;99453.59;5092848;28;20269;-69
2021/08/26 07:59:03;;;;;;;115.47;69.82;;;;;;;27.76;53.82;99453.44;5093264;28;20024;-69
2021/08/26 08:01:29;;;;;;;496.58;373.95;;;;;;;27.66;54.29;99446.97;5095611;28;20092;-69
2021/08/26 08:03:54;;;;;;;32.47;23.50;;;;;;;27.76;54.60;99446.09;5092266;28;20047;-69
2021/08/26 08:06:20;;;;;;;30.38;21.88;;;;;;;28.06;54.42;99441.53;5074941;28;20259;-69
2021/08/26 08:08:45;;;;;;;20.23;15.43;;;;;;;28.82;51.75;99441.69;5094723;28;20352;-69
2021/08/26 08:11:11;;;;;;;19.15;14.65;;;;;;;29.01;51.92;99425.41;5092970;28;20047;-68
2021/08/26 08:13:36;;;;;;;22.25;14.10;;;;;;;29.59;50.11;99430.72;5093840;28;20163;-69
2021/08/26 08:16:03;;;;;;;19.77;15.27;;;;;;;29.66;49.01;99420.25;5091186;28;20317;-69
2021/08/26 08:18:29;;;;;;;20.27;15.48;;;;;;;29.92;48.12;99414.41;5095801;28;20036;-69
2021/08/26 08:20:54;;;;;;;19.25;15.27;;;;;;;30.07;47.12;99400.53;5094840;28;20284;-69
2021/08/26 08:23:20;;;;;;;20.25;14.90;;;;;;;30.43;46.39;99403.47;5095113;28;20034;-69
2021/08/26 08:25:45;;;;;;;20.50;15.00;;;;;;;30.66;45.29;99399.78;5095213;28;20226;-69
2021/08/26 08:28:16;;;;;;;18.52;14.55;;;;;;;30.68;45.03;99396.75;5074766;28;20033;-69
2021/08/26 08:30:42;;;;;;;21.85;16.00;;;;;;;30.98;44.36;99390.66;5094144;28;20036;-69
2021/08/26 08:33:08;;;;;;;17.02;12.70;;;;;;;30.78;44.14;99375.50;5095359;28;20107;-69
2021/08/26 08:35:34;;;;;;;35.15;28.90;;;;;;;30.90;44.13;99412.44;5094512;28;20081;-69
2021/08/26 08:37:59;;;;;;;20.27;16.13;;;;;;;30.44;44.70;99416.03;5099531;28;20024;-69
2021/08/26 08:40:25;;;;;;;37.63;20.88;;;;;;;30.52;44.23;99426.25;5097798;28;20038;-69
2021/08/26 08:42:52;;;;;;;17.83;13.95;;;;;;;30.58;44.05;99424.25;5096526;28;20233;-69
2021/08/26 08:45:18;;;;;;;17.85;13.05;;;;;;;29.98;46.28;99418.66;5098582;28;20039;-69
2021/08/26 08:47:48;;;;;;;16.58;13.60;;;;;;;29.84;46.58;99404.97;5097050;28;20039;-69
2021/08/26 08:50:15;;;;;;;20.73;14.40;;;;;;;29.74;46.96;99407.84;5097764;28;20032;-69
2021/08/26 08:52:41;;;;;;;16.63;12.73;;;;;;;29.95;47.42;99416.53;5097236;28;20040;-69
2021/08/26 08:55:08;;;;;;;16.80;12.57;;;;;;;29.92;45.71;99415.22;5095506;28;20074;-69
2021/08/26 08:57:36;;;;;;;16.23;12.23;;;;;;;29.93;46.01;99400.44;5096408;28;20076;-69
2021/08/26 09:00:10;;;;;;;16.30;11.38;;;;;;;30.39;44.79;99403.25;5096800;28;20047;-69
2021/08/26 09:02:36;;;;;;;15.15;12.63;;;;;;;30.81;43.79;99396.75;5096813;28;20217;-69
2021/08/26 09:05:02;;;;;;;17.63;13.07;;;;;;;31.03;44.12;99392.50;5097683;28;20032;-69
2021/08/26 09:07:30;;;;;;;16.33;12.57;;;;;;;30.81;44.35;99376.81;5098783;28;20035;-69
2021/08/26 09:09:56;;;;;;;17.55;13.75;;;;;;;30.72;43.49;99373.97;5097706;28;20356;-69
2021/08/26 09:12:40;;;;;;;19.13;12.93;;;;;;;30.10;44.32;99370.69;5097178;28;20334;-69
2021/08/26 09:15:13;;;;;;;16.75;12.65;;;;;;;30.13;45.44;99380.22;5095007;28;20024;-69
2021/08/26 09:17:40;;;;;;;14.77;10.65;;;;;;;30.09;44.03;99369.09;5094150;28;20036;-68
2021/08/26 09:20:10;;;;;;;12.63;10.57;;;;;;;29.99;44.60;99371.97;5096105;28;20070;-69
2021/08/26 09:22:35;;;;;;;13.32;10.38;;;;;;;30.30;43.99;99361.38;5095675;28;20129;-69
2021/08/26 09:25:02;;;;;;;13.38;10.93;;;;;;;30.22;44.40;99375.72;5095344;28;20040;-69
2021/08/26 09:27:31;;;;;;;12.10;10.20;;;;;;;30.47;42.16;99377.16;5096680;28;20029;-69
2021/08/26 09:30:01;;;;;;;18.20;11.57;;;;;;;30.90;41.22;99368.69;5095372;28;20036;-69
2021/08/26 09:32:38;;;;;;;13.07;11.00;;;;;;;30.66;42.23;99363.44;5094568;28;20337;-69
2021/08/26 09:35:16;;;;;;;12.13;10.07;;;;;;;30.24;43.59;99359.03;5097543;28;20032;-69
2021/08/26 09:37:51;;;;;;;15.07;11.18;;;;;;;29.96;44.02;99358.91;5094600;28;20048;-69
2021/08/26 09:40:19;;;;;;;13.77;10.38;;;;;;;29.99;43.36;99360.22;5080958;28;20031;-69
2021/08/26 09:42:58;;;;;;;17.15;11.50;;;;;;;30.16;43.35;99357.78;5095806;28;20036;-68
2021/08/26 09:45:26;;;;;;;12.10;10.38;;;;;;;30.08;43.63;99356.53;5095314;28;20214;-68
2021/08/26 09:48:02;;;;;;;12.43;10.25;;;;;;;30.37;43.78;99353.59;5096207;28;20039;-69
2021/08/26 09:51:00;;;;;;;13.40;9.52;;;;;;;30.12;43.95;99354.03;5097164;28;20044;-69
2021/08/26 09:53:36;;;;;;;13.85;9.73;;;;;;;30.15;42.41;99350.69;5039909;28;20048;-69
2021/08/26 09:56:06;;;;;;;15.45;10.80;;;;;;;30.22;42.19;99358.53;5094535;28;20320;-68
2021/08/26 09:58:34;;;;;;;14.30;10.15;;;;;;;30.17;43.74;99349.31;5096517;28;20048;-69
2021/08/26 10:01:19;;;;;;;13.07;9.52;;;;;;;29.97;45.16;99348.78;5096736;28;20314;-69
2021/08/26 10:03:45;;;;;;;14.23;10.52;;;;;;;30.01;44.30;99328.81;5094491;28;20060;-69
2021/08/26 10:06:12;;;;;;;13.40;10.45;;;;;;;29.53;45.31;99314.59;5093385;28;20039;-69
2021/08/26 10:08:41;;;;;;;12.32;10.10;;;;;;;29.74;44.91;99334.97;5097460;28;20036;-69
2021/08/26 10:11:09;;;;;;;12.60;10.73;;;;;;;29.98;43.99;99337.56;5094606;28;20055;-69
2021/08/26 10:13:35;;;;;;;12.95;10.70;;;;;;;29.75;44.32;99333.06;5093428;28;20047;-70
2021/08/26 10:16:01;;;;;;;17.50;10.63;;;;;;;29.70;44.46;99327.69;5094620;28;20032;-69
2021/08/26 10:18:28;;;;;;;12.95;10.23;;;;;;;29.51;44.93;99346.81;5095074;28;20032;-69
2021/08/26 10:20:55;;;;;;;14.85;10.77;;;;;;;29.26;46.39;99350.69;5078199;28;20024;-69
2021/08/26 10:23:22;;;;;;;12.32;10.35;;;;;;;29.21;44.86;99370.66;5078468;28;20036;-70
2021/08/26 10:25:50;;;;;;;12.68;10.43;;;;;;;29.11;46.23;99384.41;5093744;28;20183;-69
2021/08/26 10:28:17;;;;;;;18.83;11.57;;;;;;;28.79;48.89;99390.50;5094984;28;20028;-69
2021/08/26 10:30:43;;;;;;;48.90;16.60;;;;;;;28.81;56.13;99393.75;5096078;28;20070;-69
2021/08/26 10:33:21;;;;;;;44.45;18.00;;;;;;;28.48;60.06;99394.66;5095828;28;20024;-69
2021/08/26 10:36:13;;;;;;;25.05;15.52;;;;;;;27.95;62.24;99403.50;5093887;28;20032;-68
2021/08/26 10:38:39;;;;;;;42.15;17.48;;;;;;;27.54;65.26;99429.34;5101622;28;20063;-69
2021/08/26 10:41:19;;;;;;;43.70;19.52;;;;;;;27.22;68.27;99432.50;5097026;28;20310;-69
2021/08/26 10:44:05;;;;;;;40.33;18.67;;;;;;;27.21;65.77;99428.97;5093488;28;20109;-69
2021/08/26 10:46:54;;;;;;;26.83;18.20;;;;;;;26.97;67.66;99436.91;5090695;28;20097;-69
2021/08/26 10:49:21;;;;;;;29.88;18.48;;;;;;;26.83;70.37;99444.00;5096109;28;20024;-69
2021/08/26 10:51:48;;;;;;;26.80;16.70;;;;;;;26.70;69.43;99455.44;5079226;28;20028;-69
2021/08/26 10:54:25;;;;;;;27.23;18.05;;;;;;;26.56;70.26;99452.47;5095303;28;20040;-69
2021/08/26 10:56:52;;;;;;;26.60;17.40;;;;;;;26.27;71.16;99457.63;5095689;28;20025;-68
2021/08/26 10:59:32;;;;;;;37.92;20.40;;;;;;;26.01;73.59;99470.38;5093425;28;20301;-68
2021/08/26 11:01:58;;;;;;;23.83;16.65;;;;;;;25.66;73.48;99475.69;5075835;28;20225;-68
2021/08/26 11:04:31;;;;;;;27.42;16.52;;;;;;;25.40;74.55;99505.41;5076560;28;20020;-69
2021/08/26 11:06:57;;;;;;;27.85;16.52;;;;;;;25.09;75.97;99512.56;5097281;28;20327;-69
2021/08/26 11:09:31;;;;;;;27.88;17.10;;;;;;;24.76;78.93;99500.13;5093330;28;20140;-68
2021/08/26 11:12:04;;;;;;;25.40;16.80;;;;;;;24.74;79.62;99477.09;5095353;28;20040;-68
2021/08/26 11:14:33;;;;;;;28.55;16.85;;;;;;;24.73;79.20;99478.16;5090480;28;20055;-68
2021/08/26 11:17:02;;;;;;;29.23;17.13;;;;;;;24.55;80.02;99490.22;5092397;28;20028;-69
2021/08/26 11:19:37;;;;;;;34.35;18.38;;;;;;;24.08;82.85;99476.53;5094186;28;20318;-68